Flight Track Log - Related Links

Times and Time Zones

All times are in EDT time to prevent confusion due to time zone crossing. See the UAL5419 flight status page for this flight to view local times or setup timezone preferences in your user account.


Time Position Orientation Groundspeed Altitude Reporting Facility
EDT Latitude Longitude Course Direction KTS MPH feet Rate Location/Type
Tue 03:59:04 PM 42.9667 -87.8833 190° South 162 186 1,400  Level Milwaukee TRACON
Tue 04:00:11 PM 42.9883 -87.8294 61° Northeast 254 292 3,800 2,279 Climbing Chicago Center
Tue 04:01:13 PM 42.9561 -87.7417 117° Southeast 263 303 6,300 1,548 Climbing Chicago Center
Tue 04:02:15 PM 42.8881 -87.7053 159° South 260 299 7,000 339 Climbing Chicago Center
Tue 04:03:00 PM 42.4088 -87.9025 185° South  Level Estimated
Tue 04:03:17 PM 42.8192 -87.6919 172° South 250 288 7,000  Level Chicago Center
Tue 04:04:00 PM 42.3691 -87.9123 190° South  Level FlightAware Approximate
Tue 04:04:19 PM 42.7506 -87.6775 171° South 250 288 7,000  Level Chicago Center
Tue 04:05:21 PM 42.6661 -87.6619 172° South 259 298 7,000  Level Chicago Center
Tue 04:06:23 PM 42.5947 -87.6469 171° South 260 299 7,000  Level Chicago Center
Tue 04:07:25 PM 42.5242 -87.6342 172° South 257 296 7,000 -194 Level Chicago Center
Tue 04:08:27 PM 42.4536 -87.6194 171° South 256 295 6,600 -435 Descending Chicago Center
Tue 04:09:29 PM 42.3814 -87.6064 172° South 260 299 6,100 -290 Descending Chicago Center
Tue 04:10:31 PM 42.3014 -87.5856 169° South 252 290 6,000 -48 Descending Chicago Center
Tue 04:11:34 PM 42.2347 -87.5703 170° South 246 283 6,000 -240 Level Chicago Center
Tue 04:12:36 PM 42.1778 -87.5564 170° South 214 246 5,500 -484 Descending Chicago Center
Tue 04:13:38 PM 42.1294 -87.5158 148° Southeast 226 260 5,000 -485 Descending Chicago Center
Tue 04:14:15 PM 42.1000 -87.4667 129° Southeast 235 270 4,700 -557 Descending Chicago TRACON
Tue 04:15:15 PM 42.0667 -87.3833 118° Southeast 229 264 4,100 -350 Descending Chicago TRACON
Tue 04:16:15 PM 42.0167 -87.3833 180° South 190 219 4,000 -53 Descending Chicago TRACON
Tue 04:17:09 PM 42.0000 -87.4333 246° West 170 196 4,000  Level Chicago TRACON
Tue 04:18:09 PM 42.0000 -87.5000 270° West 163 188 4,000  Level Chicago TRACON
Tue 04:19:09 PM 42.0000 -87.5667 270° West 168 193 4,000  Level Chicago TRACON
Tue 04:20:10 PM 42.0000 -87.6167 270° West 164 189 4,000  Level Chicago TRACON

Login

Don't have an account? Register now (free) for customized features, flight alerts, and more!